createdAt,value
2023-02-01T00:01:09.379Z,3.50
2023-02-01T00:03:36.188Z,3.60
2023-02-01T00:06:03.601Z,3.70
2023-02-01T00:08:30.688Z,3.70
2023-02-01T00:11:01.092Z,3.60
2023-02-01T00:13:30.456Z,3.70
2023-02-01T00:16:07.496Z,3.80
2023-02-01T00:18:34.628Z,3.90
2023-02-01T00:21:01.972Z,3.80
2023-02-01T00:23:28.596Z,3.70
2023-02-01T00:25:55.286Z,3.70
2023-02-01T00:28:21.952Z,3.60
2023-02-01T00:31:03.798Z,3.50
2023-02-01T00:33:32.194Z,3.50
2023-02-01T00:36:01.823Z,3.60
2023-02-01T00:38:29.436Z,3.50
2023-02-01T00:41:03.494Z,3.40
2023-02-01T00:43:32.370Z,3.40
2023-02-01T00:45:59.483Z,3.30
2023-02-01T00:48:26.989Z,3.30
2023-02-01T00:50:53.667Z,3.30
2023-02-01T00:53:20.350Z,3.40
2023-02-01T00:55:50.034Z,3.30
2023-02-01T00:58:16.760Z,3.30
2023-02-01T01:00:43.460Z,3.30
2023-02-01T01:03:19.524Z,3.50
2023-02-01T01:05:50.363Z,3.60
2023-02-01T01:08:17.295Z,3.80
2023-02-01T01:10:44.181Z,3.80
2023-02-01T01:13:12.119Z,3.80
2023-02-01T01:15:40.153Z,4.00
2023-02-01T01:18:07.754Z,3.90
2023-02-01T01:20:40.696Z,3.80
2023-02-01T01:23:09.204Z,3.70
2023-02-01T01:25:40.170Z,3.70
2023-02-01T01:28:07.684Z,3.60
2023-02-01T01:30:35.744Z,3.50
2023-02-01T01:33:02.583Z,3.50
2023-02-01T01:35:33.114Z,3.70
2023-02-01T01:38:01.550Z,3.80
2023-02-01T01:40:29.387Z,3.80
2023-02-01T01:42:57.406Z,3.80
2023-02-01T01:45:28.429Z,3.70
2023-02-01T01:48:14.088Z,3.80
2023-02-01T01:50:43.410Z,4.10
2023-02-01T01:53:13.004Z,4.30
2023-02-01T01:55:42.962Z,4.40
2023-02-01T01:58:13.059Z,4.40
2023-02-01T02:00:40.389Z,4.40
2023-02-01T02:03:21.307Z,4.30
2023-02-01T02:05:51.478Z,4.20
2023-02-01T02:08:21.173Z,4.20
2023-02-01T02:11:00.846Z,4.10
2023-02-01T02:13:39.442Z,4.20
2023-02-01T02:17:00.837Z,4.20
2023-02-01T02:20:05.957Z,4.00
2023-02-01T02:22:59.663Z,4.10
2023-02-01T02:25:26.287Z,4.10
2023-02-01T02:28:05.633Z,4.40
2023-02-01T02:30:51.706Z,4.50
2023-02-01T02:33:40.236Z,4.60
2023-02-01T02:36:34.041Z,4.60
2023-02-01T02:39:03.721Z,4.60
2023-02-01T02:42:15.302Z,4.50
2023-02-01T02:45:11.219Z,4.40
2023-02-01T02:48:03.537Z,4.50
2023-02-01T02:51:01.724Z,4.20
2023-02-01T02:53:55.245Z,3.80
2023-02-01T02:56:43.444Z,3.90
2023-02-01T02:59:31.582Z,4.10
2023-02-01T03:02:17.165Z,4.20
2023-02-01T03:04:43.907Z,4.20
2023-02-01T03:07:52.301Z,4.10
2023-02-01T03:10:40.579Z,4.30
2023-02-01T03:13:35.891Z,4.00
2023-02-01T03:16:05.829Z,4.10
2023-02-01T03:19:05.011Z,4.20
2023-02-01T03:21:42.497Z,4.30
2023-02-01T03:24:40.977Z,4.00
2023-02-01T03:27:31.193Z,3.90
2023-02-01T03:30:26.832Z,3.90
2023-02-01T03:33:01.708Z,3.80
2023-02-01T03:35:50.977Z,3.80
2023-02-01T03:38:19.084Z,4.10
2023-02-01T03:40:51.915Z,4.00
2023-02-01T03:43:21.267Z,4.10
2023-02-01T03:45:54.120Z,4.10
2023-02-01T03:48:23.027Z,4.00
2023-02-01T03:50:56.290Z,4.00
2023-02-01T03:53:25.334Z,4.00
2023-02-01T03:55:54.473Z,4.10
2023-02-01T03:58:23.801Z,4.20
2023-02-01T04:00:58.911Z,4.20
2023-02-01T04:03:27.705Z,4.20
2023-02-01T04:05:55.202Z,4.10
2023-02-01T04:08:25.764Z,4.20
2023-02-01T04:10:52.476Z,4.20
2023-02-01T04:13:19.167Z,4.10
2023-02-01T04:15:47.323Z,4.00
2023-02-01T04:18:13.945Z,4.00
2023-02-01T04:20:40.588Z,4.00
2023-02-01T04:23:07.268Z,4.00
2023-02-01T04:25:33.912Z,3.80
2023-02-01T04:28:00.563Z,3.90
2023-02-01T04:30:27.376Z,3.80
2023-02-01T04:32:54.023Z,3.90
2023-02-01T04:35:20.744Z,3.90
2023-02-01T04:37:47.360Z,3.90
2023-02-01T04:40:14.308Z,4.00
2023-02-01T04:42:42.008Z,4.00
2023-02-01T04:45:09.866Z,3.90
2023-02-01T04:47:36.584Z,3.90
2023-02-01T04:50:03.892Z,3.80
2023-02-01T04:52:30.510Z,3.90
2023-02-01T04:54:59.423Z,3.90
2023-02-01T04:57:26.866Z,4.10
2023-02-01T04:59:53.729Z,4.20
2023-02-01T05:02:20.377Z,4.20
2023-02-01T05:04:47.093Z,4.00
2023-02-01T05:07:13.801Z,4.00
2023-02-01T05:09:40.491Z,4.00
2023-02-01T05:12:25.952Z,4.00
2023-02-01T05:14:52.652Z,4.00
2023-02-01T05:17:19.302Z,3.90
2023-02-01T05:19:45.964Z,3.80
2023-02-01T05:22:12.666Z,3.80
2023-02-01T05:24:39.323Z,3.80
2023-02-01T05:27:05.961Z,3.70
2023-02-01T05:29:32.622Z,3.80
2023-02-01T05:32:05.254Z,3.70
2023-02-01T05:34:38.622Z,3.80
2023-02-01T05:37:05.358Z,3.60
2023-02-01T05:39:31.983Z,3.60
2023-02-01T05:41:58.710Z,3.70
2023-02-01T05:44:25.534Z,3.60
2023-02-01T05:46:53.260Z,3.70
2023-02-01T05:49:19.934Z,3.90
2023-02-01T05:51:46.931Z,3.70
2023-02-01T05:54:13.722Z,3.70
2023-02-01T05:56:41.681Z,3.70
2023-02-01T05:59:08.724Z,3.80
2023-02-01T06:01:35.380Z,3.80
2023-02-01T06:04:02.069Z,4.00
2023-02-01T06:06:28.965Z,4.00
2023-02-01T06:08:55.584Z,3.80
2023-02-01T06:11:32.339Z,3.80
2023-02-01T06:13:59.734Z,3.80
2023-02-01T06:16:26.447Z,3.60
2023-02-01T06:18:53.148Z,3.70
2023-02-01T06:21:24.572Z,3.80
2023-02-01T06:23:52.600Z,3.80
2023-02-01T06:26:19.337Z,3.90
2023-02-01T06:28:46.235Z,4.10
2023-02-01T06:31:13.517Z,4.00
2023-02-01T06:33:41.372Z,4.00
2023-02-01T06:36:11.913Z,4.00
2023-02-01T06:38:39.767Z,3.90
2023-02-01T06:41:07.002Z,3.90
2023-02-01T06:43:34.100Z,3.90
2023-02-01T06:46:03.448Z,4.00
2023-02-01T06:48:30.604Z,4.00
2023-02-01T06:50:57.336Z,4.10
2023-02-01T06:53:24.050Z,4.00
2023-02-01T06:55:59.626Z,3.80
2023-02-01T06:58:33.035Z,3.80
2023-02-01T07:01:05.703Z,4.00
2023-02-01T07:03:32.413Z,4.10
2023-02-01T07:06:01.920Z,4.10
2023-02-01T07:08:29.693Z,4.30
2023-02-01T07:10:56.508Z,4.50
2023-02-01T07:13:23.320Z,4.40
2023-02-01T07:15:50.076Z,4.50
2023-02-01T07:18:17.052Z,4.30
2023-02-01T07:20:43.990Z,4.30
2023-02-01T07:23:13.418Z,4.30
2023-02-01T07:25:40.060Z,4.30
2023-02-01T07:28:06.710Z,4.30
2023-02-01T07:30:33.415Z,4.30
2023-02-01T07:33:02.044Z,4.30
2023-02-01T07:35:29.371Z,4.40
2023-02-01T07:37:57.695Z,4.50
2023-02-01T07:40:29.423Z,4.60
2023-02-01T07:42:56.628Z,4.30
2023-02-01T07:45:23.786Z,4.00
2023-02-01T07:47:53.151Z,4.20
2023-02-01T07:50:20.202Z,4.20
2023-02-01T07:52:47.445Z,4.30
2023-02-01T07:55:14.177Z,4.40
2023-02-01T07:57:41.134Z,4.40
2023-02-01T08:00:27.158Z,4.30
2023-02-01T08:02:53.880Z,4.30
2023-02-01T08:05:21.207Z,4.20
2023-02-01T08:07:51.701Z,4.20
2023-02-01T08:10:19.507Z,4.10
2023-02-01T08:12:52.544Z,4.10
2023-02-01T08:15:19.983Z,4.20
2023-02-01T08:17:53.381Z,4.20
2023-02-01T08:20:23.820Z,4.20
2023-02-01T08:22:54.198Z,4.20
2023-02-01T08:25:21.403Z,4.20
2023-02-01T08:27:48.102Z,4.10
2023-02-01T08:30:14.901Z,4.10
2023-02-01T08:32:41.679Z,4.10
2023-02-01T08:35:09.305Z,4.00
2023-02-01T08:37:36.062Z,4.10
2023-02-01T08:40:03.410Z,4.30
2023-02-01T08:42:48.987Z,4.40
2023-02-01T08:45:15.798Z,4.40
2023-02-01T08:47:42.476Z,4.40
2023-02-01T08:50:10.327Z,4.40
2023-02-01T08:52:38.304Z,4.40
2023-02-01T08:55:06.566Z,4.20
2023-02-01T08:57:36.476Z,4.40
2023-02-01T09:00:05.369Z,4.60
2023-02-01T09:02:32.099Z,4.40
2023-02-01T09:05:00.861Z,4.50
2023-02-01T09:07:27.999Z,4.60
2023-02-01T09:09:55.517Z,4.50
2023-02-01T09:12:22.190Z,4.50
2023-02-01T09:14:48.964Z,4.30
2023-02-01T09:17:15.791Z,4.30
2023-02-01T09:19:43.119Z,4.30
2023-02-01T09:22:09.948Z,4.30
2023-02-01T09:24:36.698Z,4.40
2023-02-01T09:27:03.754Z,4.40
2023-02-01T09:29:30.523Z,4.60
2023-02-01T09:32:03.926Z,4.60
2023-02-01T09:34:31.426Z,4.70
2023-02-01T09:36:58.088Z,4.60
2023-02-01T09:39:25.195Z,4.60
2023-02-01T09:42:07.005Z,4.60
2023-02-01T09:44:51.751Z,4.60
2023-02-01T09:47:22.623Z,4.80
2023-02-01T09:50:02.835Z,4.80
2023-02-01T09:52:44.541Z,4.70
2023-02-01T09:55:31.208Z,4.70
2023-02-01T09:58:06.846Z,4.60
2023-02-01T10:00:39.573Z,4.40
2023-02-01T10:03:11.709Z,4.40
2023-02-01T10:06:04.658Z,4.30
2023-02-01T10:08:57.769Z,4.40
2023-02-01T10:11:52.081Z,4.40
2023-02-01T10:14:38.563Z,4.40
2023-02-01T10:17:13.926Z,4.40
2023-02-01T10:19:58.619Z,4.40
2023-02-01T10:23:13.379Z,4.30
2023-02-01T10:25:45.053Z,4.30
2023-02-01T10:28:17.034Z,4.40
2023-02-01T10:30:48.541Z,4.40
2023-02-01T10:33:36.180Z,4.60
2023-02-01T10:36:20.738Z,5.60
2023-02-01T10:38:47.871Z,5.60
2023-02-01T10:41:36.784Z,5.50
2023-02-01T10:44:13.289Z,5.30
2023-02-01T10:46:40.130Z,5.00
2023-02-01T10:49:33.874Z,4.90
2023-02-01T10:52:17.306Z,4.80
2023-02-01T10:54:44.463Z,4.90
2023-02-01T10:57:23.351Z,4.70
2023-02-01T10:59:50.016Z,4.70
2023-02-01T11:02:28.815Z,4.70
2023-02-01T11:05:04.842Z,4.80
2023-02-01T11:07:33.385Z,5.00
2023-02-01T11:10:00.152Z,5.10
2023-02-01T11:12:34.742Z,5.00
2023-02-01T11:15:19.065Z,5.10
2023-02-01T11:17:48.790Z,5.00
2023-02-01T11:20:18.081Z,4.90
2023-02-01T11:22:53.893Z,4.90
2023-02-01T11:25:22.600Z,4.80
2023-02-01T11:27:55.378Z,4.70
2023-02-01T11:30:39.145Z,4.90
2023-02-01T11:33:07.263Z,4.70
2023-02-01T11:35:38.169Z,4.70
2023-02-01T11:38:20.402Z,4.90
2023-02-01T11:40:47.126Z,4.80
2023-02-01T11:43:28.592Z,4.70
2023-02-01T11:46:01.457Z,4.70
2023-02-01T11:48:35.881Z,5.00
2023-02-01T11:51:11.606Z,5.00
2023-02-01T11:54:10.095Z,5.20
2023-02-01T11:56:52.358Z,5.30
2023-02-01T11:59:56.340Z,6.10
2023-02-01T12:02:52.379Z,7.10
2023-02-01T12:05:29.249Z,8.10
2023-02-01T12:08:49.604Z,7.70
2023-02-01T12:11:36.791Z,6.70
2023-02-01T12:14:25.487Z,6.30
2023-02-01T12:17:30.691Z,6.10
2023-02-01T12:20:28.349Z,5.90
2023-02-01T12:23:21.418Z,5.60
2023-02-01T12:26:14.490Z,5.70
2023-02-01T12:29:08.285Z,5.70
2023-02-01T12:31:41.195Z,5.60
2023-02-01T12:34:22.698Z,5.50
2023-02-01T12:37:08.569Z,5.10
2023-02-01T12:39:47.948Z,5.00
2023-02-01T12:42:26.976Z,5.00
2023-02-01T12:44:57.548Z,4.90
2023-02-01T12:47:35.904Z,4.90
2023-02-01T12:50:05.055Z,5.00
2023-02-01T12:52:49.092Z,5.20
2023-02-01T12:55:24.690Z,5.30
2023-02-01T12:57:59.072Z,5.30
2023-02-01T13:00:37.528Z,5.20
2023-02-01T13:03:24.424Z,5.20
2023-02-01T13:06:03.606Z,4.90
2023-02-01T13:08:48.339Z,4.70
2023-02-01T13:11:25.989Z,4.90
2023-02-01T13:14:10.511Z,5.10
2023-02-01T13:16:47.486Z,5.20
2023-02-01T13:19:29.978Z,5.10
2023-02-01T13:22:08.566Z,5.00
2023-02-01T13:24:46.095Z,5.10
2023-02-01T13:27:15.272Z,5.10
2023-02-01T13:30:05.253Z,4.70
2023-02-01T13:33:51.486Z,4.50
2023-02-01T13:35:50.700Z,4.50
2023-02-01T13:38:45.726Z,4.40
2023-02-01T13:41:25.534Z,4.60
2023-02-01T13:43:56.251Z,4.60
2023-02-01T13:46:23.428Z,4.80
2023-02-01T13:49:01.113Z,5.00
2023-02-01T13:51:43.063Z,4.90
2023-02-01T13:54:32.599Z,4.90
2023-02-01T13:57:00.753Z,4.70
2023-02-01T13:59:42.611Z,4.50
2023-02-01T14:02:47.476Z,4.40
2023-02-01T14:05:32.519Z,4.50
2023-02-01T14:08:05.403Z,4.40
2023-02-01T14:10:56.636Z,4.50
2023-02-01T14:13:40.790Z,4.70
2023-02-01T14:16:07.462Z,4.90
2023-02-01T14:18:47.323Z,4.90
2023-02-01T14:21:29.881Z,4.80
2023-02-01T14:24:16.897Z,4.70
2023-02-01T14:26:49.111Z,4.70
2023-02-01T14:29:22.164Z,4.50
2023-02-01T14:32:17.983Z,4.60
2023-02-01T14:34:47.582Z,4.60
2023-02-01T14:37:28.131Z,4.70
2023-02-01T14:40:05.390Z,4.80
2023-02-01T14:42:45.686Z,4.70
2023-02-01T14:45:18.548Z,4.80
2023-02-01T14:47:50.184Z,4.90
2023-02-01T14:50:33.235Z,4.90
2023-02-01T14:53:05.162Z,4.80
2023-02-01T14:55:54.733Z,4.60
2023-02-01T14:58:30.546Z,4.70
2023-02-01T15:00:59.926Z,4.70
2023-02-01T15:03:48.398Z,4.80
2023-02-01T15:06:27.162Z,4.90
2023-02-01T15:08:57.835Z,4.90
2023-02-01T15:11:24.588Z,4.80
2023-02-01T15:13:55.291Z,4.80
2023-02-01T15:16:25.268Z,4.70
2023-02-01T15:19:08.485Z,4.70
2023-02-01T15:21:46.743Z,4.60
2023-02-01T15:24:20.972Z,4.60
2023-02-01T15:26:48.243Z,4.90
2023-02-01T15:29:15.978Z,5.00
2023-02-01T15:31:48.823Z,4.90
2023-02-01T15:34:15.844Z,4.80
2023-02-01T15:36:53.550Z,4.80
2023-02-01T15:39:30.327Z,4.80
2023-02-01T15:42:03.191Z,4.60
2023-02-01T15:44:34.698Z,4.60
2023-02-01T15:47:08.814Z,4.80
2023-02-01T15:49:41.032Z,4.50
2023-02-01T15:52:22.544Z,4.50
2023-02-01T15:54:56.614Z,4.60
2023-02-01T15:57:33.961Z,4.80
2023-02-01T16:00:26.169Z,5.00
2023-02-01T16:02:55.730Z,5.00
2023-02-01T16:05:40.742Z,5.00
2023-02-01T16:08:25.798Z,4.70
2023-02-01T16:11:14.656Z,4.50
2023-02-01T16:13:42.130Z,4.40
2023-02-01T16:16:14.706Z,4.30
2023-02-01T16:18:42.287Z,4.40
2023-02-01T16:21:09.901Z,4.30
2023-02-01T16:23:37.411Z,4.40
2023-02-01T16:26:05.312Z,4.70
2023-02-01T16:28:32.269Z,4.90
2023-02-01T16:30:59.955Z,4.90
2023-02-01T16:33:26.849Z,4.90
2023-02-01T16:35:58.080Z,5.00
2023-02-01T16:38:24.876Z,4.90
2023-02-01T16:40:51.570Z,5.00
2023-02-01T16:43:22.550Z,5.10
2023-02-01T16:45:51.368Z,5.00
2023-02-01T16:48:37.692Z,4.70
2023-02-01T16:51:13.459Z,4.80
2023-02-01T16:53:53.575Z,4.80
2023-02-01T16:56:23.810Z,4.60
2023-02-01T16:58:51.307Z,4.60
2023-02-01T17:01:19.723Z,4.70
2023-02-01T17:03:47.469Z,4.50
2023-02-01T17:06:18.922Z,4.50
2023-02-01T17:08:51.557Z,4.60
2023-02-01T17:11:18.628Z,4.60
2023-02-01T17:13:48.062Z,4.70
2023-02-01T17:16:26.706Z,4.80
2023-02-01T17:19:06.897Z,4.90
2023-02-01T17:21:41.570Z,4.80
2023-02-01T17:24:10.444Z,4.70
2023-02-01T17:26:38.794Z,4.40
2023-02-01T17:29:05.851Z,4.40
2023-02-01T17:31:35.543Z,4.50
2023-02-01T17:34:02.194Z,4.40
2023-02-01T17:36:28.838Z,4.40
2023-02-01T17:39:05.301Z,4.50
2023-02-01T17:41:32.819Z,4.70
2023-02-01T17:43:59.743Z,4.60
2023-02-01T17:46:27.347Z,4.70
2023-02-01T17:48:55.345Z,4.60
2023-02-01T17:51:25.578Z,4.50
2023-02-01T17:53:52.659Z,4.70
2023-02-01T17:56:22.719Z,4.70
2023-02-01T17:58:50.468Z,4.80
2023-02-01T18:01:22.377Z,4.70
2023-02-01T18:03:50.049Z,4.70
2023-02-01T18:06:22.363Z,4.70
2023-02-01T18:08:49.823Z,4.60
2023-02-01T18:11:19.155Z,4.60
2023-02-01T18:13:47.454Z,4.70
2023-02-01T18:16:32.502Z,4.90
2023-02-01T18:19:01.750Z,5.10
2023-02-01T18:21:36.935Z,5.10
2023-02-01T18:24:04.804Z,5.30
2023-02-01T18:26:31.828Z,5.40
2023-02-01T18:28:58.601Z,5.30
2023-02-01T18:31:30.330Z,5.10
2023-02-01T18:33:58.973Z,5.00
2023-02-01T18:36:27.093Z,5.00
2023-02-01T18:38:56.586Z,5.10
2023-02-01T18:41:25.272Z,5.10
2023-02-01T18:43:53.145Z,5.00
2023-02-01T18:46:21.918Z,4.90
2023-02-01T18:48:49.095Z,4.90
2023-02-01T18:51:20.485Z,5.00
2023-02-01T18:53:48.555Z,5.10
2023-02-01T18:56:18.576Z,4.90
2023-02-01T18:58:45.952Z,4.80
2023-02-01T19:01:20.008Z,4.80
2023-02-01T19:03:56.300Z,4.60
2023-02-01T19:06:33.459Z,4.60
2023-02-01T19:09:00.223Z,4.80
2023-02-01T19:11:27.073Z,4.70
2023-02-01T19:13:55.350Z,4.70
2023-02-01T19:16:24.919Z,4.80
2023-02-01T19:18:52.807Z,4.90
2023-02-01T19:21:19.617Z,5.00
2023-02-01T19:23:46.361Z,5.00
2023-02-01T19:26:15.276Z,5.00
2023-02-01T19:28:46.887Z,4.90
2023-02-01T19:31:14.595Z,5.00
2023-02-01T19:33:41.496Z,5.00
2023-02-01T19:36:10.779Z,5.00
2023-02-01T19:38:37.875Z,5.00
2023-02-01T19:41:04.795Z,5.10
2023-02-01T19:43:32.662Z,5.20
2023-02-01T19:45:59.684Z,4.80
2023-02-01T19:48:26.435Z,4.70
2023-02-01T19:50:54.052Z,4.70
2023-02-01T19:53:24.678Z,4.80
2023-02-01T19:55:51.459Z,4.70
2023-02-01T19:58:18.171Z,4.60
2023-02-01T20:00:43.975Z,4.60
2023-02-01T20:03:10.856Z,4.50
2023-02-01T20:05:37.618Z,4.70
2023-02-01T20:08:07.635Z,4.70
2023-02-01T20:10:34.352Z,4.80
2023-02-01T20:13:01.022Z,4.90
2023-02-01T20:15:28.282Z,4.90
2023-02-01T20:17:54.997Z,5.10
2023-02-01T20:20:22.993Z,5.10
2023-02-01T20:22:51.893Z,4.90
2023-02-01T20:25:18.675Z,4.70
2023-02-01T20:27:54.535Z,4.60
2023-02-01T20:30:21.963Z,4.70
2023-02-01T20:32:49.807Z,4.80
2023-02-01T20:35:17.020Z,5.10
2023-02-01T20:37:43.864Z,5.10
2023-02-01T20:40:14.011Z,4.90
2023-02-01T20:42:41.602Z,4.80
2023-02-01T20:45:08.927Z,4.70
2023-02-01T20:47:36.100Z,4.80
2023-02-01T20:50:03.139Z,4.90
2023-02-01T20:52:30.210Z,4.60
2023-02-01T20:54:57.538Z,4.70
2023-02-01T20:57:24.780Z,4.80
2023-02-01T20:59:52.274Z,4.70
2023-02-01T21:02:23.589Z,4.70
2023-02-01T21:04:54.092Z,4.70
2023-02-01T21:07:21.481Z,4.80
2023-02-01T21:09:48.167Z,4.90
2023-02-01T21:12:15.257Z,4.90
2023-02-01T21:14:41.953Z,4.90
2023-02-01T21:17:08.674Z,4.50
2023-02-01T21:19:44.469Z,4.60
2023-02-01T21:22:12.647Z,4.70
2023-02-01T21:24:44.860Z,4.70
2023-02-01T21:27:11.820Z,4.90
2023-02-01T21:29:39.128Z,5.00
2023-02-01T21:32:07.378Z,5.00
2023-02-01T21:34:35.411Z,5.10
2023-02-01T21:37:02.475Z,5.10
2023-02-01T21:39:29.260Z,5.00
2023-02-01T21:42:16.526Z,5.00
2023-02-01T21:44:47.206Z,4.70
2023-02-01T21:47:17.226Z,4.70
2023-02-01T21:49:46.176Z,4.70
2023-02-01T21:52:14.816Z,4.70
2023-02-01T21:54:41.883Z,4.70
2023-02-01T21:57:12.410Z,4.90
2023-02-01T21:59:43.745Z,4.90
2023-02-01T22:02:14.587Z,4.80
2023-02-01T22:04:41.626Z,4.60
2023-02-01T22:07:08.716Z,4.80
2023-02-01T22:09:36.899Z,4.80
2023-02-01T22:12:04.110Z,4.60
2023-02-01T22:14:30.846Z,4.60
2023-02-01T22:16:57.572Z,4.70
2023-02-01T22:19:24.297Z,4.80
2023-02-01T22:21:50.926Z,4.80
2023-02-01T22:24:20.810Z,4.80
2023-02-01T22:26:48.138Z,4.90
2023-02-01T22:29:15.635Z,5.00
2023-02-01T22:31:43.066Z,5.00
2023-02-01T22:34:11.324Z,5.10
2023-02-01T22:36:38.303Z,5.00
2023-02-01T22:39:05.223Z,5.00
2023-02-01T22:41:32.007Z,4.80
2023-02-01T22:44:00.344Z,4.60
2023-02-01T22:46:29.821Z,4.30
2023-02-01T22:48:56.925Z,4.20
2023-02-01T22:51:29.802Z,4.40
2023-02-01T22:53:57.444Z,4.70
2023-02-01T22:56:30.224Z,4.50
2023-02-01T22:58:59.516Z,4.50
2023-02-01T23:01:26.207Z,4.50
2023-02-01T23:03:59.691Z,4.50
2023-02-01T23:06:26.948Z,4.50
2023-02-01T23:08:58.905Z,4.40
2023-02-01T23:11:26.736Z,4.30
2023-02-01T23:13:53.960Z,4.50
2023-02-01T23:16:21.545Z,4.30
2023-02-01T23:18:48.375Z,4.20
2023-02-01T23:21:20.914Z,4.30
2023-02-01T23:23:49.991Z,4.30
2023-02-01T23:26:17.107Z,4.10
2023-02-01T23:28:44.282Z,4.10
2023-02-01T23:31:13.448Z,4.00
2023-02-01T23:33:40.677Z,4.10
2023-02-01T23:36:11.314Z,4.10
2023-02-01T23:38:38.142Z,4.20
2023-02-01T23:41:07.210Z,4.20
2023-02-01T23:43:53.056Z,4.10
2023-02-01T23:46:20.132Z,4.20
2023-02-01T23:48:48.463Z,4.20
2023-02-01T23:51:15.916Z,4.30
2023-02-01T23:53:44.609Z,4.10
2023-02-01T23:56:23.911Z,4.30
2023-02-01T23:58:51.958Z,4.30
